Time;durP1;ratioP1;P1;durP2;ratioP2;P2;SDS_P1;SDS_P2;PMS_P1;PMS_P2;Temp;Humidity;BMP_temperature;BMP_pressure;BME280_temperature;BME280_humidity;BME280_pressure;Samples;Min_cycle;Max_cycle;Signal;HPM_P1;HPM_P2
2021/12/02 00:02:16;;;;;;;1.83;1.00;;;18.40;63.10;;;;;;5061405;28;20485;-74
2021/12/02 00:05:00;;;;;;;1.43;1.00;;;18.40;63.50;;;;;;5061696;28;20179;-74
2021/12/02 00:07:25;;;;;;;1.53;1.10;;;18.30;64.40;;;;;;5061815;28;20188;-73
2021/12/02 00:09:51;;;;;;;1.83;1.10;;;18.30;64.10;;;;;;5066235;28;20175;-74
2021/12/02 00:12:17;;;;;;;2.10;0.90;;;18.30;64.50;;;;;;5075663;28;20181;-73
2021/12/02 00:14:51;;;;;;;1.33;1.07;;;18.20;64.80;;;;;;5078423;28;20270;-74
2021/12/02 00:17:27;;;;;;;1.73;0.90;;;18.20;65.30;;;;;;5060414;28;20231;-74
2021/12/02 00:22:54;;;;;;;1.37;0.90;;;18.10;65.60;;;;;;5078248;28;20206;-74
2021/12/02 00:25:22;;;;;;;1.10;1.00;;;18.10;65.70;;;;;;5078905;28;20186;-74
2021/12/02 00:27:48;;;;;;;3.17;1.30;;;18.10;65.90;;;;;;5078613;28;20177;-74
2021/12/02 00:30:24;;;;;;;1.10;0.80;;;18.10;65.90;;;;;;5073766;28;20466;-74
2021/12/02 00:32:53;;;;;;;1.63;0.90;;;18.10;66.00;;;;;;5073871;28;20190;-74
2021/12/02 00:35:18;;;;;;;1.17;0.90;;;18.10;65.60;;;;;;5090450;28;20179;-74
2021/12/02 00:37:44;;;;;;;1.50;1.10;;;18.20;65.80;;;;;;5065010;28;20186;-74
2021/12/02 00:40:20;;;;;;;2.07;1.13;;;18.20;65.60;;;;;;5090368;28;20182;-75
2021/12/02 00:42:46;;;;;;;1.40;0.93;;;18.20;65.40;;;;;;5071789;28;20263;-74
2021/12/02 00:45:11;;;;;;;2.13;1.00;;;18.20;65.40;;;;;;5080240;28;20174;-75
2021/12/02 00:47:38;;;;;;;2.53;1.20;;;18.20;65.30;;;;;;5086546;28;20592;-73
2021/12/02 00:50:04;;;;;;;0.97;0.87;;;18.20;65.50;;;;;;5060727;28;20308;-74
2021/12/02 00:52:31;;;;;;;1.20;1.00;;;18.20;65.50;;;;;;5071989;28;20436;-74
2021/12/02 00:54:57;;;;;;;1.73;1.20;;;18.20;65.30;;;;;;5076401;28;20194;-74
2021/12/02 00:57:29;;;;;;;1.93;1.00;;;18.20;65.30;;;;;;5076351;28;20172;-74
2021/12/02 00:59:57;;;;;;;1.43;1.03;;;18.20;65.40;;;;;;5060515;28;20561;-74
2021/12/02 01:02:24;;;;;;;3.03;1.20;;;18.20;65.30;;;;;;5064231;28;20207;-74
2021/12/02 01:04:49;;;;;;;1.70;0.90;;;18.20;65.10;;;;;;5068685;28;20211;-74
2021/12/02 01:07:21;;;;;;;1.33;1.10;;;18.20;65.00;;;;;;5067596;28;20214;-74
2021/12/02 01:09:50;;;;;;;1.50;1.10;;;18.20;65.00;;;;;;5060697;28;20179;-74
2021/12/02 01:12:19;;;;;;;1.60;1.10;;;18.20;65.10;;;;;;5072319;28;20183;-74
2021/12/02 01:14:45;;;;;;;1.67;1.20;;;18.20;65.30;;;;;;5079042;28;20186;-74
2021/12/02 01:17:13;;;;;;;2.57;1.13;;;18.20;65.30;;;;;;5060398;28;20435;-74
2021/12/02 01:19:39;;;;;;;1.53;1.10;;;18.20;65.20;;;;;;5089073;28;20191;-73
2021/12/02 01:22:05;;;;;;;1.27;1.00;;;18.20;65.30;;;;;;5079735;28;20182;-74
2021/12/02 01:24:33;;;;;;;1.50;1.07;;;18.20;65.30;;;;;;5067715;28;20285;-74
2021/12/02 01:27:07;;;;;;;1.60;1.10;;;18.20;65.50;;;;;;5078211;28;20197;-74
2021/12/02 01:29:34;;;;;;;1.00;0.73;;;18.10;65.40;;;;;;5085034;28;20171;-74
2021/12/02 01:32:05;;;;;;;1.97;1.20;;;18.10;65.50;;;;;;5072940;28;20283;-74
2021/12/02 01:34:32;;;;;;;1.73;0.77;;;18.10;65.70;;;;;;5073599;28;20189;-74
2021/12/02 01:37:10;;;;;;;1.60;0.93;;;18.10;65.60;;;;;;5090771;28;20563;-74
2021/12/02 01:39:36;;;;;;;1.13;0.90;;;18.10;65.80;;;;;;5079932;28;20182;-74
2021/12/02 01:42:02;;;;;;;1.60;0.90;;;18.10;65.90;;;;;;5071945;28;20182;-74
2021/12/02 01:44:29;;;;;;;1.47;0.70;;;18.10;65.70;;;;;;5084495;28;20170;-74
2021/12/02 01:46:58;;;;;;;1.00;0.90;;;18.00;65.90;;;;;;5079697;28;20203;-74
2021/12/02 01:49:32;;;;;;;1.27;1.17;;;18.00;66.10;;;;;;5077725;28;20175;-74
2021/12/02 01:52:00;;;;;;;1.00;0.80;;;18.00;66.30;;;;;;5074737;28;20727;-74
2021/12/02 01:54:27;;;;;;;1.37;1.10;;;18.00;66.30;;;;;;5078492;28;20177;-74
2021/12/02 01:57:22;;;;;;;1.30;1.10;;;18.00;66.30;;;;;;5078398;28;20217;-74
2021/12/02 01:59:52;;;;;;;1.23;0.90;;;18.00;66.20;;;;;;5078827;28;20567;-74
2021/12/02 02:02:30;;;;;;;2.17;0.83;;;18.00;66.30;;;;;;5096753;28;20212;-74
2021/12/02 02:05:00;;;;;;;0.83;0.80;;;17.90;66.50;;;;;;5077111;28;20181;-74
2021/12/02 02:07:26;;;;;;;1.90;0.97;;;17.90;66.50;;;;;;5091305;28;20200;-74
2021/12/02 02:09:52;;;;;;;1.30;1.10;;;17.90;66.70;;;;;;5080566;28;20206;-74
2021/12/02 02:12:22;;;;;;;1.27;1.07;;;17.90;66.90;;;;;;5075810;28;20663;-74
2021/12/02 02:14:49;;;;;;;1.90;1.07;;;17.90;66.70;;;;;;5070595;28;20190;-74
2021/12/02 02:17:24;;;;;;;1.40;0.90;;;17.90;66.80;;;;;;5083464;28;20443;-74
2021/12/02 02:19:51;;;;;;;1.10;0.90;;;17.90;67.10;;;;;;5100649;28;20174;-74
2021/12/02 02:22:22;;;;;;;2.13;0.97;;;17.90;67.20;;;;;;5082651;28;20292;-74
2021/12/02 02:24:49;;;;;;;1.50;0.90;;;17.80;67.20;;;;;;5073880;28;20183;-74
2021/12/02 02:27:15;;;;;;;3.07;1.20;;;17.80;67.20;;;;;;5089509;28;20608;-74
2021/12/02 02:29:41;;;;;;;2.53;1.00;;;17.80;67.50;;;;;;5067616;28;20195;-74
2021/12/02 02:32:07;;;;;;;1.33;1.10;;;17.80;67.60;;;;;;5069685;28;20178;-74
2021/12/02 02:34:33;;;;;;;1.03;0.87;;;17.70;67.70;;;;;;5071511;28;20177;-74
2021/12/02 02:37:02;;;;;;;1.90;1.10;;;17.70;67.60;;;;;;5098613;28;20185;-74
2021/12/02 02:39:30;;;;;;;2.47;1.00;;;17.70;67.60;;;;;;5088982;28;20173;-74
2021/12/02 02:42:01;;;;;;;2.00;1.10;;;17.70;67.80;;;;;;5088066;28;20319;-74
2021/12/02 02:44:29;;;;;;;2.57;1.10;;;17.70;67.90;;;;;;5090761;28;20641;-74
2021/12/02 02:46:55;;;;;;;1.13;0.90;;;17.70;68.10;;;;;;5062995;28;20214;-74
2021/12/02 02:49:21;;;;;;;1.43;1.00;;;17.70;68.10;;;;;;5080400;28;20186;-74
2021/12/02 02:51:49;;;;;;;2.67;1.10;;;17.60;68.30;;;;;;5063080;28;20618;-74
2021/12/02 02:54:16;;;;;;;2.03;1.10;;;17.60;68.50;;;;;;5080097;28;20464;-73
2021/12/02 02:56:58;;;;;;;1.63;1.00;;;17.60;68.60;;;;;;5079990;28;20283;-74
2021/12/02 03:02:16;;;;;;;1.23;0.90;;;17.60;68.60;;;;;;5085084;28;20186;-74
2021/12/02 03:07:43;;;;;;;2.53;1.30;;;17.60;68.80;;;;;;5100084;28;20182;-74
2021/12/02 03:10:25;;;;;;;1.30;1.10;;;17.60;68.80;;;;;;5069236;28;20186;-74
2021/12/02 03:17:44;;;;;;;1.40;1.10;;;17.50;69.00;;;;;;5079797;28;20180;-74
2021/12/02 03:20:11;;;;;;;1.43;0.93;;;17.50;69.10;;;;;;5078922;28;20218;-74
2021/12/02 03:22:37;;;;;;;1.67;1.00;;;17.50;69.10;;;;;;5081662;28;20547;-74
2021/12/02 03:25:08;;;;;;;1.50;1.03;;;17.50;69.10;;;;;;5081452;28;20740;-74
2021/12/02 03:27:34;;;;;;;1.40;1.00;;;17.50;69.20;;;;;;5062703;28;20444;-74
2021/12/02 03:29:59;;;;;;;1.20;0.90;;;17.50;69.20;;;;;;5081623;28;20181;-74
2021/12/02 03:32:25;;;;;;;1.67;0.90;;;17.50;69.30;;;;;;5069416;28;20199;-74
2021/12/02 03:34:51;;;;;;;1.27;0.97;;;17.50;69.40;;;;;;5085978;28;20192;-74
2021/12/02 03:37:17;;;;;;;1.60;1.20;;;17.40;69.40;;;;;;5093418;28;20607;-74
2021/12/02 03:39:44;;;;;;;1.30;0.90;;;17.40;69.90;;;;;;5062527;28;20190;-74
2021/12/02 03:42:10;;;;;;;1.87;1.10;;;17.30;70.30;;;;;;5068734;28;20280;-74
2021/12/02 03:44:36;;;;;;;1.97;1.13;;;17.30;70.70;;;;;;5080385;28;20188;-74
2021/12/02 03:47:02;;;;;;;1.23;0.90;;;17.20;71.00;;;;;;5076245;28;20460;-74
2021/12/02 03:49:29;;;;;;;2.43;1.00;;;17.20;71.10;;;;;;5080360;28;20185;-74
2021/12/02 03:51:55;;;;;;;2.90;1.17;;;17.10;71.50;;;;;;5099030;28;20575;-74
2021/12/02 03:54:23;;;;;;;1.47;1.00;;;17.10;71.80;;;;;;5063923;28;20225;-74
2021/12/02 03:56:49;;;;;;;1.63;1.03;;;17.10;72.00;;;;;;5079400;28;20187;-74
2021/12/02 03:59:14;;;;;;;1.47;1.00;;;17.00;72.10;;;;;;5062764;28;20181;-74
2021/12/02 04:01:40;;;;;;;1.63;0.90;;;17.00;72.40;;;;;;5072065;28;20179;-74
2021/12/02 04:04:06;;;;;;;1.30;0.73;;;17.00;72.50;;;;;;5080550;28;20220;-74
2021/12/02 04:06:32;;;;;;;1.10;0.90;;;17.00;72.80;;;;;;5077283;28;20589;-74
2021/12/02 04:16:39;;;;;;;1.10;0.90;;;21.20;52.40;;;;;;5092759;28;20183;-73
2021/12/02 04:19:08;;;;;;;1.00;0.83;;;21.20;52.20;;;;;;5061985;28;20184;-74
2021/12/02 04:21:34;;;;;;;0.90;0.80;;;21.40;51.70;;;;;;5061610;28;20471;-74
2021/12/02 04:24:01;;;;;;;2.10;0.90;;;21.80;51.10;;;;;;5080604;28;20209;-74
2021/12/02 04:26:27;;;;;;;1.83;0.90;;;22.00;50.60;;;;;;5092269;28;20268;-75
2021/12/02 04:28:53;;;;;;;1.10;1.00;;;22.60;49.70;;;;;;5073808;28;20187;-75
2021/12/02 04:31:19;;;;;;;1.60;0.93;;;23.00;49.00;;;;;;5085062;28;20235;-74
2021/12/02 04:33:45;;;;;;;1.47;0.90;;;23.10;48.50;;;;;;5080141;28;20318;-74
2021/12/02 04:36:11;;;;;;;1.57;0.80;;;23.30;48.20;;;;;;5080172;28;20223;-74
2021/12/02 04:38:36;;;;;;;1.33;0.90;;;23.40;47.90;;;;;;5068408;28;20510;-74
2021/12/02 04:41:09;;;;;;;0.90;0.90;;;23.90;47.50;;;;;;5061003;28;20580;-74
2021/12/02 04:43:35;;;;;;;1.37;0.97;;;24.10;47.10;;;;;;5073218;28;20211;-74
2021/12/02 04:46:00;;;;;;;1.57;0.80;;;24.10;46.80;;;;;;5080701;28;20246;-73
2021/12/02 04:48:26;;;;;;;1.03;0.90;;;24.20;46.80;;;;;;5068827;28;20328;-74
2021/12/02 04:51:01;;;;;;;1.07;0.77;;;24.20;46.60;;;;;;5078026;28;20225;-74
2021/12/02 04:53:27;;;;;;;0.90;0.80;;;24.30;46.60;;;;;;5060741;28;20182;-74
2021/12/02 04:55:52;;;;;;;1.43;0.90;;;24.50;46.40;;;;;;5091247;28;20176;-75
2021/12/02 04:58:18;;;;;;;1.10;1.00;;;24.80;46.00;;;;;;5082833;28;20189;-74
2021/12/02 05:00:45;;;;;;;1.13;0.80;;;25.00;45.70;;;;;;5079784;28;20198;-74
2021/12/02 05:03:11;;;;;;;1.37;0.80;;;25.10;45.40;;;;;;5095373;28;20578;-74
2021/12/02 05:05:36;;;;;;;1.67;0.90;;;24.80;45.50;;;;;;5079464;28;20187;-74
2021/12/02 05:08:04;;;;;;;0.80;0.80;;;24.70;46.10;;;;;;5097216;28;20328;-74
2021/12/02 05:10:45;;;;;;;1.33;0.93;;;24.50;45.90;;;;;;5065802;28;20282;-75
2021/12/02 05:13:11;;;;;;;0.70;0.70;;;24.30;46.20;;;;;;5059974;28;20339;-74
2021/12/02 05:15:37;;;;;;;1.27;1.00;;;24.00;46.50;;;;;;5059862;28;20297;-74
2021/12/02 05:18:02;;;;;;;1.50;1.00;;;23.70;46.90;;;;;;5092695;28;20179;-74
2021/12/02 05:20:28;;;;;;;1.20;0.83;;;23.50;47.20;;;;;;5095055;28;20267;-75
2021/12/02 05:22:56;;;;;;;1.10;0.90;;;23.20;47.50;;;;;;5068535;28;20217;-73
2021/12/02 05:25:22;;;;;;;1.17;0.97;;;22.90;47.90;;;;;;5062755;28;20207;-73
2021/12/02 05:27:48;;;;;;;1.10;1.00;;;22.60;48.30;;;;;;5079191;28;20183;-74
2021/12/02 05:30:14;;;;;;;0.80;0.80;;;22.40;48.70;;;;;;5088841;28;20300;-74
2021/12/02 05:32:46;;;;;;;1.27;0.90;;;22.20;49.10;;;;;;5061556;28;20773;-74
2021/12/02 05:35:12;;;;;;;1.00;0.90;;;22.00;49.50;;;;;;5076764;28;20551;-74
2021/12/02 05:37:38;;;;;;;1.70;1.07;;;21.90;49.80;;;;;;5069814;28;20197;-74
2021/12/02 05:40:04;;;;;;;1.07;0.97;;;21.70;50.30;;;;;;5077334;28;20186;-74
2021/12/02 05:42:32;;;;;;;1.83;1.00;;;21.40;50.70;;;;;;5058704;28;20213;-74
2021/12/02 05:44:57;;;;;;;1.00;0.90;;;21.20;51.20;;;;;;5063378;28;20539;-74
2021/12/02 05:47:23;;;;;;;1.77;1.00;;;20.90;51.70;;;;;;5092849;28;20269;-74
2021/12/02 05:49:49;;;;;;;1.37;0.90;;;20.70;52.40;;;;;;5080667;28;20315;-74
2021/12/02 05:52:15;;;;;;;1.23;1.00;;;20.50;52.90;;;;;;5062255;28;20190;-74
2021/12/02 05:54:41;;;;;;;1.10;0.90;;;20.30;53.50;;;;;;5086604;28;20183;-75
2021/12/02 05:57:06;;;;;;;1.40;1.07;;;20.20;54.50;;;;;;5061654;28;20193;-75
2021/12/02 05:59:32;;;;;;;1.17;0.90;;;20.40;54.10;;;;;;5068039;28;20186;-74
2021/12/02 06:01:58;;;;;;;1.23;0.90;;;21.50;52.60;;;;;;5098623;28;20184;-74
2021/12/02 06:04:24;;;;;;;2.07;1.10;;;22.80;50.10;;;;;;5065834;28;20308;-74
2021/12/02 06:06:50;;;;;;;1.97;1.20;;;23.90;48.10;;;;;;5093112;28;20270;-74
2021/12/02 06:09:18;;;;;;;0.83;0.83;;;24.30;47.40;;;;;;5080789;28;20193;-74
2021/12/02 06:11:45;;;;;;;1.00;0.80;;;24.30;46.60;;;;;;5078969;28;20228;-75
2021/12/02 06:14:13;;;;;;;1.03;0.90;;;24.20;46.60;;;;;;5078815;28;20281;-74
2021/12/02 06:16:39;;;;;;;1.20;1.07;;;23.90;46.80;;;;;;5060757;28;20187;-74
2021/12/02 06:19:07;;;;;;;1.93;1.10;;;23.90;47.00;;;;;;5079654;28;20335;-74
2021/12/02 06:21:33;;;;;;;1.30;1.00;;;24.10;46.70;;;;;;5061235;28;20183;-74
2021/12/02 06:24:01;;;;;;;1.13;1.00;;;24.50;46.50;;;;;;5062346;28;20217;-74
2021/12/02 06:26:26;;;;;;;1.20;1.10;;;24.50;46.30;;;;;;5080954;28;20184;-74
2021/12/02 06:28:52;;;;;;;2.57;0.97;;;24.50;46.30;;;;;;5072966;28;20182;-74
2021/12/02 06:31:18;;;;;;;1.20;0.80;;;24.40;46.30;;;;;;5086581;28;20282;-74
2021/12/02 06:33:43;;;;;;;2.10;1.00;;;24.30;46.50;;;;;;5060596;28;20183;-74
2021/12/02 06:36:09;;;;;;;1.53;1.00;;;24.10;46.60;;;;;;5073324;28;20585;-72
2021/12/02 06:38:35;;;;;;;1.37;0.90;;;24.00;46.80;;;;;;5059376;28;20604;-74
2021/12/02 06:41:01;;;;;;;2.40;1.13;;;23.80;47.00;;;;;;5071470;28;20726;-74
2021/12/02 06:43:26;;;;;;;1.10;1.00;;;23.60;47.20;;;;;;5072988;28;20217;-73
2021/12/02 06:45:52;;;;;;;3.53;0.90;;;23.30;47.60;;;;;;5072427;28;20229;-73
2021/12/02 06:48:18;;;;;;;2.13;1.10;;;23.10;47.80;;;;;;5097171;28;20180;-75
2021/12/02 06:50:44;;;;;;;2.17;1.20;;;23.00;48.10;;;;;;5079613;28;20210;-74
2021/12/02 06:53:09;;;;;;;2.70;1.00;;;22.80;48.30;;;;;;5069342;28;20190;-74
2021/12/02 06:55:35;;;;;;;1.77;0.97;;;22.60;48.60;;;;;;5068860;28;20194;-74
2021/12/02 06:58:01;;;;;;;3.37;1.10;;;22.40;49.00;;;;;;5077786;28;20226;-74
2021/12/02 07:00:27;;;;;;;3.37;1.07;;;22.10;49.50;;;;;;5069353;28;20182;-74
2021/12/02 07:02:53;;;;;;;3.20;1.30;;;21.90;50.00;;;;;;5063882;28;20232;-73
2021/12/02 07:05:19;;;;;;;2.00;1.10;;;21.80;50.70;;;;;;5078053;28;20247;-75
2021/12/02 07:07:46;;;;;;;2.90;1.40;;;21.70;50.60;;;;;;5082409;28;20172;-74
2021/12/02 07:10:19;;;;;;;2.77;1.17;;;21.50;51.00;;;;;;5079073;28;20175;-74
2021/12/02 07:12:48;;;;;;;2.87;1.30;;;21.30;51.50;;;;;;5079975;28;20189;-75
2021/12/02 07:15:20;;;;;;;2.57;1.30;;;21.10;52.10;;;;;;5076576;28;20672;-75
2021/12/02 07:17:53;;;;;;;2.70;1.30;;;21.20;52.30;;;;;;5078833;28;20189;-75
2021/12/02 07:20:19;;;;;;;1.97;1.03;;;21.40;51.90;;;;;;5074246;28;20191;-74
2021/12/02 07:22:45;;;;;;;1.73;1.00;;;22.10;51.20;;;;;;5059344;28;20206;-75
2021/12/02 07:25:11;;;;;;;2.87;1.17;;;23.20;49.50;;;;;;5087540;28;20471;-75
2021/12/02 07:27:37;;;;;;;1.63;1.10;;;24.10;48.00;;;;;;5078922;28;20174;-75
2021/12/02 07:30:04;;;;;;;2.17;1.20;;;24.50;47.00;;;;;;5062706;28;20278;-75
2021/12/02 07:32:39;;;;;;;2.00;1.30;;;24.60;46.60;;;;;;5087066;28;20179;-75
2021/12/02 07:35:13;;;;;;;3.87;1.60;;;24.60;46.60;;;;;;5086142;28;20178;-75
2021/12/02 07:37:47;;;;;;;3.77;1.43;;;24.40;46.70;;;;;;5081590;28;20508;-75
2021/12/02 07:40:14;;;;;;;6.00;1.37;;;24.30;46.70;;;;;;5094468;28;20746;-74
2021/12/02 07:42:40;;;;;;;7.13;1.30;;;24.30;46.80;;;;;;5075963;28;20214;-74
2021/12/02 07:45:08;;;;;;;3.40;1.40;;;24.30;46.80;;;;;;5096752;28;20179;-75
2021/12/02 07:47:37;;;;;;;1.53;1.20;;;24.30;46.80;;;;;;5094758;28;20273;-74
2021/12/02 07:50:04;;;;;;;3.40;1.30;;;24.20;46.80;;;;;;5084199;28;20179;-75
2021/12/02 07:52:33;;;;;;;5.13;1.20;;;24.20;46.80;;;;;;5095794;28;20285;-75
2021/12/02 07:55:05;;;;;;;4.67;1.57;;;24.00;46.90;;;;;;5082476;28;20202;-75
2021/12/02 07:57:33;;;;;;;2.30;1.07;;;23.90;47.00;;;;;;5071954;28;20183;-75
2021/12/02 07:59:59;;;;;;;1.67;1.27;;;23.80;47.20;;;;;;5075563;28;20267;-75
2021/12/02 08:02:32;;;;;;;2.03;1.40;;;23.60;47.40;;;;;;5064618;28;20268;-75
2021/12/02 08:04:58;;;;;;;2.27;1.20;;;23.40;47.60;;;;;;5077758;28;20179;-74
2021/12/02 08:07:24;;;;;;;3.90;1.33;;;23.30;47.80;;;;;;5076495;28;20233;-75
2021/12/02 08:09:49;;;;;;;2.70;1.40;;;23.10;48.00;;;;;;5074300;28;20171;-74
2021/12/02 08:12:15;;;;;;;2.57;1.20;;;23.00;48.20;;;;;;5076359;28;20199;-75
2021/12/02 08:14:41;;;;;;;2.10;1.30;;;22.80;48.40;;;;;;5068850;28;20182;-75
2021/12/02 08:17:06;;;;;;;4.23;1.40;;;22.70;48.70;;;;;;5074177;28;20172;-75
2021/12/02 08:19:32;;;;;;;1.23;1.07;;;22.60;48.90;;;;;;5079082;28;20171;-74
2021/12/02 08:21:58;;;;;;;4.63;1.50;;;22.50;49.00;;;;;;5097245;28;20181;-75
2021/12/02 08:24:25;;;;;;;5.17;1.67;;;22.50;49.20;;;;;;5076529;28;20480;-74
2021/12/02 08:26:53;;;;;;;2.87;1.57;;;22.40;49.30;;;;;;5082772;28;20178;-75
2021/12/02 08:29:19;;;;;;;2.53;1.33;;;22.30;49.40;;;;;;5076911;28;20171;-75
2021/12/02 08:31:45;;;;;;;2.33;1.30;;;22.30;49.50;;;;;;5062900;28;20189;-76
2021/12/02 08:34:11;;;;;;;2.97;1.67;;;22.30;49.60;;;;;;5057048;28;20257;-75
2021/12/02 08:36:49;;;;;;;3.23;1.30;;;22.30;49.50;;;;;;5081624;28;20182;-75
2021/12/02 08:39:23;;;;;;;1.97;1.30;;;22.40;49.50;;;;;;5081512;28;20185;-72
2021/12/02 08:41:50;;;;;;;2.73;1.40;;;22.40;49.50;;;;;;5068019;28;20180;-73
2021/12/02 08:44:19;;;;;;;3.43;1.23;;;22.60;49.20;;;;;;5090533;28;20237;-73
2021/12/02 08:46:47;;;;;;;4.33;1.40;;;22.90;48.90;;;;;;5073576;28;20220;-73
2021/12/02 08:49:14;;;;;;;4.17;1.23;;;23.00;48.50;;;;;;5091845;28;20166;-73
2021/12/02 08:51:40;;;;;;;1.33;1.10;;;23.00;48.40;;;;;;5055680;28;20187;-73
2021/12/02 08:54:07;;;;;;;3.37;1.73;;;22.80;48.40;;;;;;5066054;28;20184;-73
2021/12/02 08:56:33;;;;;;;2.50;1.20;;;22.60;48.70;;;;;;5077143;28;20520;-73
2021/12/02 08:58:59;;;;;;;1.90;1.40;;;22.40;49.10;;;;;;5075196;28;20618;-73
2021/12/02 09:01:28;;;;;;;3.63;1.40;;;22.10;49.60;;;;;;5090171;28;20193;-73
2021/12/02 09:03:55;;;;;;;1.47;1.23;;;21.80;49.90;;;;;;5092252;28;20252;-72
2021/12/02 09:06:23;;;;;;;2.23;1.37;;;21.50;50.40;;;;;;5082895;28;20177;-73
2021/12/02 09:08:51;;;;;;;2.73;1.23;;;21.50;50.90;;;;;;5073841;28;20202;-73
2021/12/02 09:11:17;;;;;;;3.90;1.30;;;21.90;50.60;;;;;;5071537;28;20265;-73
2021/12/02 09:13:43;;;;;;;2.17;1.00;;;22.90;49.30;;;;;;5063257;28;20198;-73
2021/12/02 09:16:09;;;;;;;1.57;1.13;;;24.10;47.50;;;;;;5069715;28;20183;-73
2021/12/02 09:18:35;;;;;;;2.77;1.13;;;24.60;46.50;;;;;;5062381;28;20251;-73
2021/12/02 09:21:01;;;;;;;1.57;1.10;;;24.50;46.30;;;;;;5085506;28;20789;-72
2021/12/02 09:23:26;;;;;;;3.00;1.23;;;24.50;46.30;;;;;;5062062;28;20214;-73
2021/12/02 09:25:53;;;;;;;1.47;1.17;;;24.60;46.10;;;;;;5068279;28;20210;-74
2021/12/02 09:28:18;;;;;;;1.67;1.17;;;24.70;45.90;;;;;;5068915;28;20273;-73
2021/12/02 09:30:45;;;;;;;2.37;1.20;;;24.90;45.70;;;;;;5055921;28;20299;-74
2021/12/02 09:33:10;;;;;;;1.50;1.20;;;24.90;45.80;;;;;;5067428;28;20195;-73
2021/12/02 09:35:37;;;;;;;1.47;1.10;;;24.70;45.70;;;;;;5074819;28;20186;-73
2021/12/02 09:38:06;;;;;;;1.97;1.27;;;24.60;45.90;;;;;;5072818;28;20177;-73
2021/12/02 09:40:32;;;;;;;2.50;1.20;;;24.50;46.00;;;;;;5086039;28;20182;-73
2021/12/02 09:42:58;;;;;;;2.97;1.27;;;24.50;46.00;;;;;;5089466;28;20298;-73
2021/12/02 09:45:23;;;;;;;1.33;1.10;;;24.50;46.00;;;;;;5074478;28;20303;-73
2021/12/02 09:47:50;;;;;;;1.40;1.20;;;24.30;46.30;;;;;;5072043;28;20175;-74
2021/12/02 09:50:23;;;;;;;2.30;1.30;;;24.00;46.50;;;;;;5090574;28;20163;-73
2021/12/02 09:52:50;;;;;;;1.50;1.20;;;23.80;46.90;;;;;;5079454;28;20172;-73
2021/12/02 09:55:22;;;;;;;1.40;1.03;;;23.50;47.10;;;;;;5055074;28;20180;-73
2021/12/02 09:57:55;;;;;;;2.33;1.40;;;23.30;47.40;;;;;;5066981;28;20178;-72
2021/12/02 10:00:36;;;;;;;2.23;1.13;;;23.20;47.70;;;;;;5070103;28;20183;-73
2021/12/02 10:03:05;;;;;;;1.43;1.20;;;22.90;48.00;;;;;;5067564;28;20202;-73
2021/12/02 10:05:48;;;;;;;1.80;1.23;;;22.70;48.40;;;;;;5070594;28;20625;-73
2021/12/02 10:08:31;;;;;;;1.33;1.00;;;22.50;48.70;;;;;;5054180;28;20175;-73
2021/12/02 10:11:01;;;;;;;2.00;1.20;;;22.40;49.10;;;;;;5061438;28;20505;-73
2021/12/02 10:13:38;;;;;;;2.07;1.20;;;22.20;49.40;;;;;;5074849;28;20276;-73
2021/12/02 10:16:24;;;;;;;2.27;1.30;;;22.00;49.70;;;;;;5074322;28;20196;-73
2021/12/02 10:19:19;;;;;;;1.77;1.20;;;21.90;50.10;;;;;;5085697;28;20182;-73
2021/12/02 10:22:30;;;;;;;1.20;1.03;;;21.60;50.40;;;;;;5083800;28;20492;-73
2021/12/02 10:24:31;;;;;;;1.60;1.20;;;21.50;50.80;;;;;;5073975;28;20321;-73
2021/12/02 10:26:59;;;;;;;1.20;1.10;;;21.30;51.30;;;;;;5090215;28;20288;-73
2021/12/02 10:29:33;;;;;;;1.70;1.03;;;21.30;51.50;;;;;;5081776;28;20206;-74
2021/12/02 10:32:13;;;;;;;1.37;1.13;;;21.60;51.30;;;;;;5058115;28;20179;-74
2021/12/02 10:34:54;;;;;;;2.07;1.40;;;22.40;50.20;;;;;;5074718;28;20385;-74
2021/12/02 10:37:28;;;;;;;1.83;1.30;;;23.40;48.80;;;;;;5077287;28;20244;-74
2021/12/02 10:40:10;;;;;;;1.37;1.00;;;24.10;47.50;;;;;;5066429;28;20756;-74
2021/12/02 10:42:40;;;;;;;1.40;1.10;;;24.50;46.70;;;;;;5082322;28;20208;-72
2021/12/02 10:45:17;;;;;;;1.47;1.13;;;24.80;46.20;;;;;;5093519;28;20725;-74
2021/12/02 10:47:51;;;;;;;2.33;1.20;;;25.00;45.80;;;;;;5078594;28;20171;-74
2021/12/02 10:50:18;;;;;;;2.10;1.30;;;24.80;45.80;;;;;;5070457;28;20177;-74
2021/12/02 10:52:44;;;;;;;3.17;1.33;;;24.70;45.90;;;;;;5059918;28;20182;-74
2021/12/02 10:55:13;;;;;;;2.50;1.17;;;24.60;46.00;;;;;;5078105;28;20477;-74
2021/12/02 10:57:45;;;;;;;2.13;1.20;;;24.80;45.90;;;;;;5070361;28;20310;-74
2021/12/02 11:00:14;;;;;;;1.77;1.20;;;24.80;45.80;;;;;;5072138;28;20221;-74
2021/12/02 11:02:48;;;;;;;1.50;1.20;;;24.70;45.90;;;;;;5061491;28;20195;-74
2021/12/02 11:05:22;;;;;;;1.03;0.97;;;24.40;46.10;;;;;;5062299;28;20274;-74
2021/12/02 11:08:05;;;;;;;2.90;1.30;;;24.20;46.40;;;;;;5069104;28;20170;-74
2021/12/02 11:10:35;;;;;;;1.90;1.07;;;24.00;46.70;;;;;;5081701;28;20522;-73
2021/12/02 11:13:04;;;;;;;2.00;1.20;;;23.60;47.10;;;;;;5079638;28;20293;-74
2021/12/02 11:15:32;;;;;;;1.27;1.17;;;23.40;47.50;;;;;;5075788;28;20499;-74
2021/12/02 11:18:02;;;;;;;2.03;1.20;;;23.20;47.80;;;;;;5072197;28;20236;-74
2021/12/02 11:20:32;;;;;;;2.27;1.20;;;22.90;48.20;;;;;;5095034;28;20181;-72
2021/12/02 11:23:17;;;;;;;1.83;1.20;;;22.70;48.70;;;;;;5094671;28;20203;-74
2021/12/02 11:25:49;;;;;;;1.43;1.10;;;22.50;49.10;;;;;;5067248;28;20268;-74
2021/12/02 11:28:16;;;;;;;2.70;1.20;;;22.30;49.90;;;;;;5095436;28;20258;-74
2021/12/02 11:30:42;;;;;;;1.97;1.07;;;22.00;49.90;;;;;;5077377;28;20179;-74
2021/12/02 11:33:09;;;;;;;1.90;1.30;;;21.80;50.50;;;;;;5069999;28;20193;-74
2021/12/02 11:35:40;;;;;;;1.57;1.10;;;21.60;50.90;;;;;;5089823;28;20269;-74
2021/12/02 11:38:21;;;;;;;2.83;1.10;;;21.50;51.30;;;;;;5074076;28;20181;-74
2021/12/02 11:40:49;;;;;;;2.43;1.00;;;21.30;51.70;;;;;;5076358;28;20175;-74
2021/12/02 11:43:23;;;;;;;2.03;1.10;;;21.10;52.10;;;;;;5084921;28;20207;-74
2021/12/02 11:45:51;;;;;;;1.30;1.10;;;21.10;52.30;;;;;;5080976;28;20194;-74
2021/12/02 11:48:26;;;;;;;1.30;1.20;;;21.20;52.20;;;;;;5073778;28;20755;-74
2021/12/02 11:50:55;;;;;;;1.80;1.23;;;21.60;51.60;;;;;;5090370;28;20178;-74
2021/12/02 11:53:22;;;;;;;2.70;1.00;;;22.20;50.70;;;;;;5074946;28;20188;-75
2021/12/02 11:55:54;;;;;;;1.90;1.20;;;22.80;49.60;;;;;;5065556;28;20178;-75
2021/12/02 11:58:20;;;;;;;1.47;1.17;;;23.60;48.40;;;;;;5084888;28;20205;-75
2021/12/02 12:00:47;;;;;;;2.43;1.10;;;24.10;47.40;;;;;;5066464;28;20221;-75
2021/12/02 12:03:39;;;;;;;2.30;1.20;;;24.40;46.80;;;;;;5075417;28;20233;-75
2021/12/02 12:06:11;;;;;;;1.93;1.20;;;24.70;46.20;;;;;;5075278;28;20175;-75
2021/12/02 12:08:42;;;;;;;2.93;1.20;;;25.10;45.80;;;;;;5071303;28;20526;-75
2021/12/02 12:11:30;;;;;;;1.13;1.03;;;25.10;45.50;;;;;;5085723;28;20163;-75
2021/12/02 12:14:04;;;;;;;1.77;1.20;;;25.00;45.50;;;;;;5064061;28;20286;-75
2021/12/02 12:16:33;;;;;;;1.70;1.10;;;24.90;45.60;;;;;;5074940;28;20334;-75
2021/12/02 12:19:21;;;;;;;2.17;1.23;;;24.60;45.80;;;;;;5075627;28;20269;-75
2021/12/02 12:25:09;;;;;;;1.77;1.27;;;24.20;46.30;;;;;;5086955;28;20193;-74
2021/12/02 12:27:37;;;;;;;1.93;1.00;;;23.90;46.60;;;;;;5075293;28;20171;-75
2021/12/02 12:30:24;;;;;;;1.63;1.23;;;23.50;47.00;;;;;;5094523;28;20175;-75
2021/12/02 12:35:43;;;;;;;2.03;1.30;;;22.80;47.90;;;;;;5086072;28;20176;-75
2021/12/02 12:38:32;;;;;;;1.40;1.20;;;22.60;48.40;;;;;;5085963;28;20174;-74
2021/12/02 12:41:19;;;;;;;3.37;1.27;;;22.40;48.80;;;;;;5074073;28;20193;-75
2021/12/02 12:43:51;;;;;;;3.37;1.50;;;22.10;49.30;;;;;;5076575;28;20235;-75
2021/12/02 12:46:21;;;;;;;1.43;1.20;;;21.90;49.80;;;;;;5088835;28;20245;-75
2021/12/02 12:48:47;;;;;;;1.53;1.23;;;21.60;50.20;;;;;;5063839;28;20540;-75
2021/12/02 12:51:13;;;;;;;3.00;1.40;;;21.40;50.70;;;;;;5056125;28;20207;-75
2021/12/02 12:53:43;;;;;;;2.37;1.27;;;21.20;51.20;;;;;;5068859;28;20598;-73
2021/12/02 12:56:13;;;;;;;1.63;1.23;;;20.90;51.70;;;;;;5076336;28;20193;-73
2021/12/02 12:59:10;;;;;;;1.70;1.40;;;20.70;52.30;;;;;;5071142;28;20176;-73
2021/12/02 13:01:40;;;;;;;3.47;1.53;;;20.50;52.90;;;;;;5074275;28;20198;-73
2021/12/02 13:04:10;;;;;;;2.73;1.40;;;20.80;52.80;;;;;;5077840;28;20202;-73
2021/12/02 13:07:23;;;;;;;5.37;1.77;;;21.50;51.70;;;;;;5071613;28;20747;-73
2021/12/02 13:09:56;;;;;;;4.50;1.60;;;22.60;49.90;;;;;;5073670;28;20190;-73
2021/12/02 13:12:50;;;;;;;3.23;1.70;;;23.70;48.10;;;;;;5090173;28;20186;-73
2021/12/02 13:15:19;;;;;;;4.50;1.80;;;24.70;46.40;;;;;;5064620;28;20195;-73
2021/12/02 13:17:50;;;;;;;2.90;1.50;;;24.80;45.80;;;;;;5088649;28;20524;-73
2021/12/02 13:20:20;;;;;;;4.23;1.60;;;24.60;45.80;;;;;;5075719;28;20171;-73
2021/12/02 13:23:16;;;;;;;2.50;1.67;;;24.80;45.70;;;;;;5074788;28;20533;-73
2021/12/02 13:25:56;;;;;;;2.83;1.70;;;25.00;45.60;;;;;;5084753;28;20194;-73
2021/12/02 13:28:35;;;;;;;4.13;1.50;;;25.00;45.40;;;;;;5080038;28;20175;-73